sensor_id;sensor_type;location;lat;lon;timestamp;temperature;humidity
76384;SHT30;65204;48.606;7.598;2023-04-24T00:00:29;15.52;62.46
76384;SHT30;65204;48.606;7.598;2023-04-24T00:01:01;15.53;62.25
76384;SHT30;65204;48.606;7.598;2023-04-24T00:01:31;15.51;62.33
76384;SHT30;65204;48.606;7.598;2023-04-24T00:02:02;15.51;62.39
76384;SHT30;65204;48.606;7.598;2023-04-24T00:02:33;15.48;62.51
76384;SHT30;65204;48.606;7.598;2023-04-24T00:03:04;15.48;62.39
76384;SHT30;65204;48.606;7.598;2023-04-24T00:03:34;15.49;62.35
76384;SHT30;65204;48.606;7.598;2023-04-24T00:04:05;15.51;62.18
76384;SHT30;65204;48.606;7.598;2023-04-24T00:04:37;15.49;62.24
76384;SHT30;65204;48.606;7.598;2023-04-24T00:05:10;15.48;62.35
76384;SHT30;65204;48.606;7.598;2023-04-24T00:05:40;15.49;62.25
76384;SHT30;65204;48.606;7.598;2023-04-24T00:06:11;15.46;62.40
76384;SHT30;65204;48.606;7.598;2023-04-24T00:06:42;15.48;62.46
76384;SHT30;65204;48.606;7.598;2023-04-24T00:07:12;15.46;62.59
76384;SHT30;65204;48.606;7.598;2023-04-24T00:07:44;15.43;62.52
76384;SHT30;65204;48.606;7.598;2023-04-24T00:08:15;15.42;62.50
76384;SHT30;65204;48.606;7.598;2023-04-24T00:08:45;15.42;62.53
76384;SHT30;65204;48.606;7.598;2023-04-24T00:09:16;15.46;62.36
76384;SHT30;65204;48.606;7.598;2023-04-24T00:09:46;15.45;62.49
76384;SHT30;65204;48.606;7.598;2023-04-24T00:10:16;15.41;62.71
76384;SHT30;65204;48.606;7.598;2023-04-24T00:10:47;15.41;62.51
76384;SHT30;65204;48.606;7.598;2023-04-24T00:11:17;15.43;62.58
76384;SHT30;65204;48.606;7.598;2023-04-24T00:11:48;15.42;62.69
76384;SHT30;65204;48.606;7.598;2023-04-24T00:12:18;15.41;62.57
76384;SHT30;65204;48.606;7.598;2023-04-24T00:12:48;15.42;62.72
76384;SHT30;65204;48.606;7.598;2023-04-24T00:13:19;15.43;62.51
76384;SHT30;65204;48.606;7.598;2023-04-24T00:13:49;15.42;62.81
76384;SHT30;65204;48.606;7.598;2023-04-24T00:14:20;15.43;62.63
76384;SHT30;65204;48.606;7.598;2023-04-24T00:14:50;15.43;62.63
76384;SHT30;65204;48.606;7.598;2023-04-24T00:15:20;15.42;62.40
76384;SHT30;65204;48.606;7.598;2023-04-24T00:15:51;15.45;62.68
76384;SHT30;65204;48.606;7.598;2023-04-24T00:16:22;15.45;62.35
76384;SHT30;65204;48.606;7.598;2023-04-24T00:16:53;15.45;62.43
76384;SHT30;65204;48.606;7.598;2023-04-24T00:17:23;15.46;62.68
76384;SHT30;65204;48.606;7.598;2023-04-24T00:17:54;15.43;62.70
76384;SHT30;65204;48.606;7.598;2023-04-24T00:18:24;15.45;62.67
76384;SHT30;65204;48.606;7.598;2023-04-24T00:18:55;15.42;62.82
76384;SHT30;65204;48.606;7.598;2023-04-24T00:19:25;15.46;62.74
76384;SHT30;65204;48.606;7.598;2023-04-24T00:19:55;15.43;62.70
76384;SHT30;65204;48.606;7.598;2023-04-24T00:20:28;15.49;62.52
76384;SHT30;65204;48.606;7.598;2023-04-24T00:21:05;15.45;62.91
76384;SHT30;65204;48.606;7.598;2023-04-24T00:21:36;15.45;62.69
76384;SHT30;65204;48.606;7.598;2023-04-24T00:22:06;15.48;63.08
76384;SHT30;65204;48.606;7.598;2023-04-24T00:22:36;15.48;62.76
76384;SHT30;65204;48.606;7.598;2023-04-24T00:23:07;15.48;62.64
76384;SHT30;65204;48.606;7.598;2023-04-24T00:23:38;15.49;63.21
76384;SHT30;65204;48.606;7.598;2023-04-24T00:24:08;15.49;63.08
76384;SHT30;65204;48.606;7.598;2023-04-24T00:24:41;15.52;63.13
76384;SHT30;65204;48.606;7.598;2023-04-24T00:25:11;15.49;62.89
76384;SHT30;65204;48.606;7.598;2023-04-24T00:25:42;15.48;63.01
76384;SHT30;65204;48.606;7.598;2023-04-24T00:26:12;15.53;62.97
76384;SHT30;65204;48.606;7.598;2023-04-24T00:26:43;15.52;63.17
76384;SHT30;65204;48.606;7.598;2023-04-24T00:27:13;15.55;63.13
76384;SHT30;65204;48.606;7.598;2023-04-24T00:27:43;15.56;63.10
76384;SHT30;65204;48.606;7.598;2023-04-24T00:28:14;15.55;63.22
76384;SHT30;65204;48.606;7.598;2023-04-24T00:28:44;15.53;63.23
76384;SHT30;65204;48.606;7.598;2023-04-24T00:29:14;15.59;63.39
76384;SHT30;65204;48.606;7.598;2023-04-24T00:29:45;15.59;63.19
76384;SHT30;65204;48.606;7.598;2023-04-24T00:30:15;15.59;63.26
76384;SHT30;65204;48.606;7.598;2023-04-24T00:30:45;15.59;63.00
76384;SHT30;65204;48.606;7.598;2023-04-24T00:31:16;15.61;62.96
76384;SHT30;65204;48.606;7.598;2023-04-24T00:31:46;15.65;63.15
76384;SHT30;65204;48.606;7.598;2023-04-24T00:32:16;15.61;63.39
76384;SHT30;65204;48.606;7.598;2023-04-24T00:32:47;15.62;62.95
76384;SHT30;65204;48.606;7.598;2023-04-24T00:33:18;15.66;63.08
76384;SHT30;65204;48.606;7.598;2023-04-24T00:33:48;15.65;63.15
76384;SHT30;65204;48.606;7.598;2023-04-24T00:34:19;15.65;63.41
76384;SHT30;65204;48.606;7.598;2023-04-24T00:34:49;15.67;63.33
76384;SHT30;65204;48.606;7.598;2023-04-24T00:35:19;15.67;63.23
76384;SHT30;65204;48.606;7.598;2023-04-24T00:35:50;15.69;63.25
76384;SHT30;65204;48.606;7.598;2023-04-24T00:36:20;15.67;63.27
76384;SHT30;65204;48.606;7.598;2023-04-24T00:36:50;15.67;63.40
76384;SHT30;65204;48.606;7.598;2023-04-24T00:37:22;15.67;63.28
76384;SHT30;65204;48.606;7.598;2023-04-24T00:37:52;15.70;63.27
76384;SHT30;65204;48.606;7.598;2023-04-24T00:38:22;15.69;63.16
76384;SHT30;65204;48.606;7.598;2023-04-24T00:38:53;15.69;63.19
76384;SHT30;65204;48.606;7.598;2023-04-24T00:39:24;15.72;63.36
76384;SHT30;65204;48.606;7.598;2023-04-24T00:39:54;15.72;63.38
76384;SHT30;65204;48.606;7.598;2023-04-24T00:40:26;15.72;63.44
76384;SHT30;65204;48.606;7.598;2023-04-24T00:40:57;15.69;63.19
76384;SHT30;65204;48.606;7.598;2023-04-24T00:41:27;15.72;63.32
76384;SHT30;65204;48.606;7.598;2023-04-24T00:41:58;15.72;63.20
76384;SHT30;65204;48.606;7.598;2023-04-24T00:42:29;15.70;63.52
76384;SHT30;65204;48.606;7.598;2023-04-24T00:42:59;15.72;63.23
76384;SHT30;65204;48.606;7.598;2023-04-24T00:43:30;15.73;63.57
76384;SHT30;65204;48.606;7.598;2023-04-24T00:44:00;15.73;63.71
76384;SHT30;65204;48.606;7.598;2023-04-24T00:44:31;15.74;63.48
76384;SHT30;65204;48.606;7.598;2023-04-24T00:45:02;15.73;63.45
76384;SHT30;65204;48.606;7.598;2023-04-24T00:45:33;15.76;63.48
76384;SHT30;65204;48.606;7.598;2023-04-24T00:46:03;15.74;63.59
76384;SHT30;65204;48.606;7.598;2023-04-24T00:46:33;15.73;63.39
76384;SHT30;65204;48.606;7.598;2023-04-24T00:47:04;15.74;63.41
76384;SHT30;65204;48.606;7.598;2023-04-24T00:47:35;15.76;63.70
76384;SHT30;65204;48.606;7.598;2023-04-24T00:48:06;15.76;63.92
76384;SHT30;65204;48.606;7.598;2023-04-24T00:48:38;15.76;63.83
76384;SHT30;65204;48.606;7.598;2023-04-24T00:49:09;15.81;63.92
76384;SHT30;65204;48.606;7.598;2023-04-24T00:49:40;15.72;63.93
76384;SHT30;65204;48.606;7.598;2023-04-24T00:50:10;15.76;63.61
76384;SHT30;65204;48.606;7.598;2023-04-24T00:50:43;15.74;63.63
76384;SHT30;65204;48.606;7.598;2023-04-24T00:51:14;15.79;63.79
76384;SHT30;65204;48.606;7.598;2023-04-24T00:51:44;15.78;63.97
76384;SHT30;65204;48.606;7.598;2023-04-24T00:52:15;15.74;64.22
76384;SHT30;65204;48.606;7.598;2023-04-24T00:52:48;15.74;63.68
76384;SHT30;65204;48.606;7.598;2023-04-24T00:53:18;15.74;64.14
76384;SHT30;65204;48.606;7.598;2023-04-24T00:53:48;15.79;63.92
76384;SHT30;65204;48.606;7.598;2023-04-24T00:54:20;15.79;63.96
76384;SHT30;65204;48.606;7.598;2023-04-24T00:54:50;15.78;64.16
76384;SHT30;65204;48.606;7.598;2023-04-24T00:55:20;15.79;64.10
76384;SHT30;65204;48.606;7.598;2023-04-24T00:55:51;15.78;64.51
76384;SHT30;65204;48.606;7.598;2023-04-24T00:56:21;15.78;64.36
76384;SHT30;65204;48.606;7.598;2023-04-24T00:56:52;15.78;64.52
76384;SHT30;65204;48.606;7.598;2023-04-24T00:57:22;15.78;64.13
76384;SHT30;65204;48.606;7.598;2023-04-24T00:57:54;15.78;64.45
76384;SHT30;65204;48.606;7.598;2023-04-24T00:58:24;15.79;64.26
76384;SHT30;65204;48.606;7.598;2023-04-24T00:58:55;15.79;64.52
76384;SHT30;65204;48.606;7.598;2023-04-24T00:59:26;15.81;64.41
76384;SHT30;65204;48.606;7.598;2023-04-24T00:59:57;15.81;64.45
76384;SHT30;65204;48.606;7.598;2023-04-24T01:00:27;15.79;64.40
76384;SHT30;65204;48.606;7.598;2023-04-24T01:00:58;15.76;64.58
76384;SHT30;65204;48.606;7.598;2023-04-24T01:01:28;15.73;64.88
76384;SHT30;65204;48.606;7.598;2023-04-24T01:01:59;15.76;64.43
76384;SHT30;65204;48.606;7.598;2023-04-24T01:02:29;15.74;64.37
76384;SHT30;65204;48.606;7.598;2023-04-24T01:03:01;15.73;64.65
76384;SHT30;65204;48.606;7.598;2023-04-24T01:03:34;15.74;64.76
76384;SHT30;65204;48.606;7.598;2023-04-24T01:04:07;15.73;64.61
76384;SHT30;65204;48.606;7.598;2023-04-24T01:04:37;15.74;64.85
76384;SHT30;65204;48.606;7.598;2023-04-24T01:05:08;15.78;64.74
76384;SHT30;65204;48.606;7.598;2023-04-24T01:05:38;15.76;64.83
76384;SHT30;65204;48.606;7.598;2023-04-24T01:06:09;15.76;64.64
76384;SHT30;65204;48.606;7.598;2023-04-24T01:06:43;15.78;64.66
76384;SHT30;65204;48.606;7.598;2023-04-24T01:07:14;15.76;64.69
76384;SHT30;65204;48.606;7.598;2023-04-24T01:07:45;15.79;64.80
76384;SHT30;65204;48.606;7.598;2023-04-24T01:08:17;15.78;64.57
76384;SHT30;65204;48.606;7.598;2023-04-24T01:08:48;15.78;64.84
76384;SHT30;65204;48.606;7.598;2023-04-24T01:09:19;15.78;64.66
76384;SHT30;65204;48.606;7.598;2023-04-24T01:09:51;15.76;64.98
76384;SHT30;65204;48.606;7.598;2023-04-24T01:10:23;15.78;64.87
76384;SHT30;65204;48.606;7.598;2023-04-24T01:10:54;15.76;64.56
76384;SHT30;65204;48.606;7.598;2023-04-24T01:11:26;15.78;64.59
76384;SHT30;65204;48.606;7.598;2023-04-24T01:11:57;15.78;64.62
76384;SHT30;65204;48.606;7.598;2023-04-24T01:12:28;15.79;64.87
76384;SHT30;65204;48.606;7.598;2023-04-24T01:12:58;15.79;64.80
76384;SHT30;65204;48.606;7.598;2023-04-24T01:13:29;15.78;64.72
76384;SHT30;65204;48.606;7.598;2023-04-24T01:13:59;15.78;64.84
76384;SHT30;65204;48.606;7.598;2023-04-24T01:14:30;15.79;64.71
76384;SHT30;65204;48.606;7.598;2023-04-24T01:15:01;15.74;64.95
76384;SHT30;65204;48.606;7.598;2023-04-24T01:15:31;15.76;64.62
76384;SHT30;65204;48.606;7.598;2023-04-24T01:16:02;15.76;64.71
76384;SHT30;65204;48.606;7.598;2023-04-24T01:16:32;15.73;65.11
76384;SHT30;65204;48.606;7.598;2023-04-24T01:17:03;15.72;65.07
76384;SHT30;65204;48.606;7.598;2023-04-24T01:17:33;15.69;65.07
76384;SHT30;65204;48.606;7.598;2023-04-24T01:18:04;15.72;65.07
76384;SHT30;65204;48.606;7.598;2023-04-24T01:18:34;15.70;65.12
76384;SHT30;65204;48.606;7.598;2023-04-24T01:19:09;15.67;65.18
76384;SHT30;65204;48.606;7.598;2023-04-24T01:19:40;15.67;65.23
76384;SHT30;65204;48.606;7.598;2023-04-24T01:20:11;15.65;65.09
76384;SHT30;65204;48.606;7.598;2023-04-24T01:20:42;15.65;65.39
76384;SHT30;65204;48.606;7.598;2023-04-24T01:21:15;15.59;65.60
76384;SHT30;65204;48.606;7.598;2023-04-24T01:21:47;15.62;65.34
76384;SHT30;65204;48.606;7.598;2023-04-24T01:22:20;15.55;65.30
76384;SHT30;65204;48.606;7.598;2023-04-24T01:22:51;15.58;65.31
76384;SHT30;65204;48.606;7.598;2023-04-24T01:23:21;15.59;65.18
76384;SHT30;65204;48.606;7.598;2023-04-24T01:23:52;15.58;65.39
76384;SHT30;65204;48.606;7.598;2023-04-24T01:24:22;15.58;65.37
76384;SHT30;65204;48.606;7.598;2023-04-24T01:24:53;15.58;65.64
76384;SHT30;65204;48.606;7.598;2023-04-24T01:25:24;15.59;65.26
76384;SHT30;65204;48.606;7.598;2023-04-24T01:25:55;15.58;65.46
76384;SHT30;65204;48.606;7.598;2023-04-24T01:26:26;15.58;65.36
76384;SHT30;65204;48.606;7.598;2023-04-24T01:26:56;15.55;65.53
76384;SHT30;65204;48.606;7.598;2023-04-24T01:27:26;15.55;65.37
76384;SHT30;65204;48.606;7.598;2023-04-24T01:27:57;15.55;65.64
76384;SHT30;65204;48.606;7.598;2023-04-24T01:28:27;15.59;65.62
76384;SHT30;65204;48.606;7.598;2023-04-24T01:28:58;15.55;65.87
76384;SHT30;65204;48.606;7.598;2023-04-24T01:29:28;15.55;65.94
76384;SHT30;65204;48.606;7.598;2023-04-24T01:29:59;15.55;65.75
76384;SHT30;65204;48.606;7.598;2023-04-24T01:30:31;15.53;65.81
76384;SHT30;65204;48.606;7.598;2023-04-24T01:31:02;15.51;65.91
76384;SHT30;65204;48.606;7.598;2023-04-24T01:31:32;15.52;65.85
76384;SHT30;65204;48.606;7.598;2023-04-24T01:32:03;15.53;65.61
76384;SHT30;65204;48.606;7.598;2023-04-24T01:32:35;15.56;65.69
76384;SHT30;65204;48.606;7.598;2023-04-24T01:33:06;15.58;65.79
76384;SHT30;65204;48.606;7.598;2023-04-24T01:33:37;15.58;65.96
76384;SHT30;65204;48.606;7.598;2023-04-24T01:34:07;15.58;65.81
76384;SHT30;65204;48.606;7.598;2023-04-24T01:34:38;15.61;66.13
76384;SHT30;65204;48.606;7.598;2023-04-24T01:35:08;15.59;66.02
76384;SHT30;65204;48.606;7.598;2023-04-24T01:35:39;15.58;65.98
76384;SHT30;65204;48.606;7.598;2023-04-24T01:36:11;15.58;65.96
76384;SHT30;65204;48.606;7.598;2023-04-24T01:36:41;15.59;65.87
76384;SHT30;65204;48.606;7.598;2023-04-24T01:37:11;15.62;65.87
76384;SHT30;65204;48.606;7.598;2023-04-24T01:37:42;15.62;66.16
76384;SHT30;65204;48.606;7.598;2023-04-24T01:38:12;15.65;66.04
76384;SHT30;65204;48.606;7.598;2023-04-24T01:38:43;15.58;65.78
76384;SHT30;65204;48.606;7.598;2023-04-24T01:39:13;15.61;65.79
76384;SHT30;65204;48.606;7.598;2023-04-24T01:39:45;15.62;66.24
76384;SHT30;65204;48.606;7.598;2023-04-24T01:40:16;15.62;66.23
76384;SHT30;65204;48.606;7.598;2023-04-24T01:40:46;15.59;65.70
76384;SHT30;65204;48.606;7.598;2023-04-24T01:41:17;15.61;65.82
76384;SHT30;65204;48.606;7.598;2023-04-24T01:41:47;15.65;65.70
76384;SHT30;65204;48.606;7.598;2023-04-24T01:42:19;15.63;65.91
76384;SHT30;65204;48.606;7.598;2023-04-24T01:42:50;15.65;66.06
76384;SHT30;65204;48.606;7.598;2023-04-24T01:43:21;15.65;65.87
76384;SHT30;65204;48.606;7.598;2023-04-24T01:43:52;15.65;65.85
76384;SHT30;65204;48.606;7.598;2023-04-24T01:44:23;15.62;65.72
76384;SHT30;65204;48.606;7.598;2023-04-24T01:44:53;15.63;65.82
76384;SHT30;65204;48.606;7.598;2023-04-24T01:45:24;15.63;66.04
76384;SHT30;65204;48.606;7.598;2023-04-24T01:45:54;15.61;65.96
76384;SHT30;65204;48.606;7.598;2023-04-24T01:46:25;15.61;65.96
76384;SHT30;65204;48.606;7.598;2023-04-24T01:46:56;15.61;66.04
76384;SHT30;65204;48.606;7.598;2023-04-24T01:47:27;15.58;66.01
76384;SHT30;65204;48.606;7.598;2023-04-24T01:47:57;15.55;66.31
76384;SHT30;65204;48.606;7.598;2023-04-24T01:48:28;15.56;66.23
76384;SHT30;65204;48.606;7.598;2023-04-24T01:49:00;15.53;66.26
76384;SHT30;65204;48.606;7.598;2023-04-24T01:49:31;15.52;66.28
76384;SHT30;65204;48.606;7.598;2023-04-24T01:50:03;15.52;66.07
76384;SHT30;65204;48.606;7.598;2023-04-24T01:50:34;15.52;66.20
76384;SHT30;65204;48.606;7.598;2023-04-24T01:51:05;15.52;66.35
76384;SHT30;65204;48.606;7.598;2023-04-24T01:51:35;15.52;65.94
76384;SHT30;65204;48.606;7.598;2023-04-24T01:52:05;15.52;66.18
76384;SHT30;65204;48.606;7.598;2023-04-24T01:52:36;15.55;66.11
76384;SHT30;65204;48.606;7.598;2023-04-24T01:53:06;15.56;66.14
76384;SHT30;65204;48.606;7.598;2023-04-24T01:53:37;15.53;66.28
76384;SHT30;65204;48.606;7.598;2023-04-24T01:54:07;15.53;66.29
76384;SHT30;65204;48.606;7.598;2023-04-24T01:54:37;15.52;66.42
76384;SHT30;65204;48.606;7.598;2023-04-24T01:55:08;15.51;66.55
76384;SHT30;65204;48.606;7.598;2023-04-24T01:55:39;15.51;66.24
76384;SHT30;65204;48.606;7.598;2023-04-24T01:56:10;15.48;66.25
76384;SHT30;65204;48.606;7.598;2023-04-24T01:56:42;15.49;66.32
76384;SHT30;65204;48.606;7.598;2023-04-24T01:57:14;15.49;66.41
76384;SHT30;65204;48.606;7.598;2023-04-24T01:57:44;15.52;66.18
76384;SHT30;65204;48.606;7.598;2023-04-24T01:58:15;15.48;66.29
76384;SHT30;65204;48.606;7.598;2023-04-24T01:58:45;15.51;66.27
76384;SHT30;65204;48.606;7.598;2023-04-24T01:59:17;15.51;66.25
76384;SHT30;65204;48.606;7.598;2023-04-24T01:59:48;15.55;66.24
76384;SHT30;65204;48.606;7.598;2023-04-24T02:00:18;15.52;66.35
76384;SHT30;65204;48.606;7.598;2023-04-24T02:00:48;15.53;66.52
76384;SHT30;65204;48.606;7.598;2023-04-24T02:01:19;15.53;66.19
76384;SHT30;65204;48.606;7.598;2023-04-24T02:01:50;15.53;66.17
76384;SHT30;65204;48.606;7.598;2023-04-24T02:02:20;15.55;66.21
76384;SHT30;65204;48.606;7.598;2023-04-24T02:02:51;15.58;66.10
76384;SHT30;65204;48.606;7.598;2023-04-24T02:03:22;15.56;66.36
76384;SHT30;65204;48.606;7.598;2023-04-24T02:03:52;15.58;66.02
76384;SHT30;65204;48.606;7.598;2023-04-24T02:04:22;15.59;66.20
76384;SHT30;65204;48.606;7.598;2023-04-24T02:04:54;15.59;66.12
76384;SHT30;65204;48.606;7.598;2023-04-24T02:05:24;15.59;66.23
76384;SHT30;65204;48.606;7.598;2023-04-24T02:05:55;15.62;66.30
76384;SHT30;65204;48.606;7.598;2023-04-24T02:06:25;15.62;66.19
76384;SHT30;65204;48.606;7.598;2023-04-24T02:06:55;15.62;66.29
76384;SHT30;65204;48.606;7.598;2023-04-24T02:07:26;15.61;66.34
76384;SHT30;65204;48.606;7.598;2023-04-24T02:07:56;15.61;66.28
76384;SHT30;65204;48.606;7.598;2023-04-24T02:08:26;15.61;66.13
76384;SHT30;65204;48.606;7.598;2023-04-24T02:08:58;15.63;66.21
76384;SHT30;65204;48.606;7.598;2023-04-24T02:09:28;15.62;66.05
76384;SHT30;65204;48.606;7.598;2023-04-24T02:09:59;15.63;66.14
76384;SHT30;65204;48.606;7.598;2023-04-24T02:10:29;15.62;66.19
76384;SHT30;65204;48.606;7.598;2023-04-24T02:10:59;15.65;66.12
76384;SHT30;65204;48.606;7.598;2023-04-24T02:11:31;15.66;66.03
76384;SHT30;65204;48.606;7.598;2023-04-24T02:12:02;15.66;66.34
76384;SHT30;65204;48.606;7.598;2023-04-24T02:12:32;15.62;66.18
76384;SHT30;65204;48.606;7.598;2023-04-24T02:13:02;15.65;66.16
76384;SHT30;65204;48.606;7.598;2023-04-24T02:13:33;15.65;66.11
76384;SHT30;65204;48.606;7.598;2023-04-24T02:14:03;15.66;66.27
76384;SHT30;65204;48.606;7.598;2023-04-24T02:14:33;15.65;66.46
76384;SHT30;65204;48.606;7.598;2023-04-24T02:15:04;15.65;66.25
76384;SHT30;65204;48.606;7.598;2023-04-24T02:15:35;15.66;66.18
76384;SHT30;65204;48.606;7.598;2023-04-24T02:16:06;15.63;66.57
76384;SHT30;65204;48.606;7.598;2023-04-24T02:16:36;15.62;66.28
76384;SHT30;65204;48.606;7.598;2023-04-24T02:17:06;15.63;66.51
76384;SHT30;65204;48.606;7.598;2023-04-24T02:17:37;15.61;66.46
76384;SHT30;65204;48.606;7.598;2023-04-24T02:18:08;15.59;66.29
76384;SHT30;65204;48.606;7.598;2023-04-24T02:18:38;15.61;66.54
76384;SHT30;65204;48.606;7.598;2023-04-24T02:19:09;15.62;66.44
76384;SHT30;65204;48.606;7.598;2023-04-24T02:19:39;15.59;66.46
76384;SHT30;65204;48.606;7.598;2023-04-24T02:20:10;15.61;66.54
76384;SHT30;65204;48.606;7.598;2023-04-24T02:20:40;15.63;66.49
76384;SHT30;65204;48.606;7.598;2023-04-24T02:21:10;15.63;66.57
76384;SHT30;65204;48.606;7.598;2023-04-24T02:21:41;15.63;67.00
76384;SHT30;65204;48.606;7.598;2023-04-24T02:22:11;15.59;66.70
76384;SHT30;65204;48.606;7.598;2023-04-24T02:22:42;15.61;66.72
76384;SHT30;65204;48.606;7.598;2023-04-24T02:23:12;15.61;66.98
76384;SHT30;65204;48.606;7.598;2023-04-24T02:23:43;15.59;67.04
76384;SHT30;65204;48.606;7.598;2023-04-24T02:24:14;15.61;67.01
76384;SHT30;65204;48.606;7.598;2023-04-24T02:24:44;15.63;66.93
76384;SHT30;65204;48.606;7.598;2023-04-24T02:25:14;15.59;67.07
76384;SHT30;65204;48.606;7.598;2023-04-24T02:25:45;15.62;66.98
76384;SHT30;65204;48.606;7.598;2023-04-24T02:26:15;15.61;67.25
76384;SHT30;65204;48.606;7.598;2023-04-24T02:26:46;15.62;67.17
76384;SHT30;65204;48.606;7.598;2023-04-24T02:27:16;15.62;67.31
76384;SHT30;65204;48.606;7.598;2023-04-24T02:27:47;15.65;67.10
76384;SHT30;65204;48.606;7.598;2023-04-24T02:28:17;15.63;67.42
76384;SHT30;65204;48.606;7.598;2023-04-24T02:28:47;15.63;67.00
76384;SHT30;65204;48.606;7.598;2023-04-24T02:29:18;15.63;66.29
76384;SHT30;65204;48.606;7.598;2023-04-24T02:29:48;15.65;66.00
76384;SHT30;65204;48.606;7.598;2023-04-24T02:30:18;15.63;66.20
76384;SHT30;65204;48.606;7.598;2023-04-24T02:30:49;15.62;66.05
76384;SHT30;65204;48.606;7.598;2023-04-24T02:31:20;15.63;65.99
76384;SHT30;65204;48.606;7.598;2023-04-24T02:31:51;15.66;66.35
76384;SHT30;65204;48.606;7.598;2023-04-24T02:32:21;15.63;66.53
76384;SHT30;65204;48.606;7.598;2023-04-24T02:32:51;15.63;66.47
76384;SHT30;65204;48.606;7.598;2023-04-24T02:33:21;15.58;66.61
76384;SHT30;65204;48.606;7.598;2023-04-24T02:33:52;15.61;66.67
76384;SHT30;65204;48.606;7.598;2023-04-24T02:34:22;15.61;66.61
76384;SHT30;65204;48.606;7.598;2023-04-24T02:34:53;15.61;66.32
76384;SHT30;65204;48.606;7.598;2023-04-24T02:35:23;15.58;66.18
76384;SHT30;65204;48.606;7.598;2023-04-24T02:35:53;15.56;66.06
76384;SHT30;65204;48.606;7.598;2023-04-24T02:36:24;15.55;66.01
76384;SHT30;65204;48.606;7.598;2023-04-24T02:36:54;15.53;66.00
76384;SHT30;65204;48.606;7.598;2023-04-24T02:37:24;15.53;65.93
76384;SHT30;65204;48.606;7.598;2023-04-24T02:37:55;15.52;65.69
76384;SHT30;65204;48.606;7.598;2023-04-24T02:38:25;15.49;65.47
76384;SHT30;65204;48.606;7.598;2023-04-24T02:38:55;15.48;65.18
76384;SHT30;65204;48.606;7.598;2023-04-24T02:39:26;15.45;65.19
76384;SHT30;65204;48.606;7.598;2023-04-24T02:39:56;15.43;65.13
76384;SHT30;65204;48.606;7.598;2023-04-24T02:40:27;15.41;65.28
76384;SHT30;65204;48.606;7.598;2023-04-24T02:40:57;15.41;65.31
76384;SHT30;65204;48.606;7.598;2023-04-24T02:41:27;15.38;65.50
76384;SHT30;65204;48.606;7.598;2023-04-24T02:42:02;15.36;65.45
76384;SHT30;65204;48.606;7.598;2023-04-24T02:42:33;15.36;65.34
76384;SHT30;65204;48.606;7.598;2023-04-24T02:43:03;15.35;64.50
76384;SHT30;65204;48.606;7.598;2023-04-24T02:43:33;15.38;64.01
76384;SHT30;65204;48.606;7.598;2023-04-24T02:44:04;15.36;64.22
76384;SHT30;65204;48.606;7.598;2023-04-24T02:44:34;15.32;64.00
76384;SHT30;65204;48.606;7.598;2023-04-24T02:45:05;15.31;63.82
76384;SHT30;65204;48.606;7.598;2023-04-24T02:45:35;15.32;63.38
76384;SHT30;65204;48.606;7.598;2023-04-24T02:46:06;15.30;63.33
76384;SHT30;65204;48.606;7.598;2023-04-24T02:46:36;15.31;63.43
76384;SHT30;65204;48.606;7.598;2023-04-24T02:47:06;15.30;63.36
76384;SHT30;65204;48.606;7.598;2023-04-24T02:47:38;15.27;63.19
76384;SHT30;65204;48.606;7.598;2023-04-24T02:48:09;15.27;62.57
76384;SHT30;65204;48.606;7.598;2023-04-24T02:48:39;15.27;62.60
76384;SHT30;65204;48.606;7.598;2023-04-24T02:49:09;15.25;62.73
76384;SHT30;65204;48.606;7.598;2023-04-24T02:49:39;15.21;62.77
76384;SHT30;65204;48.606;7.598;2023-04-24T02:50:10;15.20;62.50
76384;SHT30;65204;48.606;7.598;2023-04-24T02:50:40;15.21;62.88
76384;SHT30;65204;48.606;7.598;2023-04-24T02:51:11;15.20;62.64
76384;SHT30;65204;48.606;7.598;2023-04-24T02:51:41;15.20;62.51
76384;SHT30;65204;48.606;7.598;2023-04-24T02:52:11;15.20;62.59
76384;SHT30;65204;48.606;7.598;2023-04-24T02:52:42;15.17;61.93
76384;SHT30;65204;48.606;7.598;2023-04-24T02:53:12;15.11;62.19
76384;SHT30;65204;48.606;7.598;2023-04-24T02:53:43;15.14;61.77
76384;SHT30;65204;48.606;7.598;2023-04-24T02:54:13;15.15;62.00
76384;SHT30;65204;48.606;7.598;2023-04-24T02:54:43;15.15;61.92
76384;SHT30;65204;48.606;7.598;2023-04-24T02:55:14;15.14;61.90
76384;SHT30;65204;48.606;7.598;2023-04-24T02:55:44;15.15;62.13
76384;SHT30;65204;48.606;7.598;2023-04-24T02:56:16;15.14;61.67
76384;SHT30;65204;48.606;7.598;2023-04-24T02:56:46;15.12;61.94
76384;SHT30;65204;48.606;7.598;2023-04-24T02:57:16;15.11;62.03
76384;SHT30;65204;48.606;7.598;2023-04-24T02:57:46;15.11;62.06
76384;SHT30;65204;48.606;7.598;2023-04-24T02:58:17;15.12;61.34
76384;SHT30;65204;48.606;7.598;2023-04-24T02:58:49;15.11;61.45
76384;SHT30;65204;48.606;7.598;2023-04-24T02:59:20;15.12;61.32
76384;SHT30;65204;48.606;7.598;2023-04-24T02:59:50;15.14;61.15
76384;SHT30;65204;48.606;7.598;2023-04-24T03:00:21;15.14;61.13
76384;SHT30;65204;48.606;7.598;2023-04-24T03:00:54;15.18;61.01
76384;SHT30;65204;48.606;7.598;2023-04-24T03:01:27;15.15;60.58
76384;SHT30;65204;48.606;7.598;2023-04-24T03:01:58;15.11;60.54
76384;SHT30;65204;48.606;7.598;2023-04-24T03:02:28;15.10;60.53
76384;SHT30;65204;48.606;7.598;2023-04-24T03:02:58;15.11;60.54
76384;SHT30;65204;48.606;7.598;2023-04-24T03:03:28;15.12;60.78
76384;SHT30;65204;48.606;7.598;2023-04-24T03:03:59;15.12;60.85
76384;SHT30;65204;48.606;7.598;2023-04-24T03:04:29;15.11;60.52
76384;SHT30;65204;48.606;7.598;2023-04-24T03:04:59;15.10;60.64
76384;SHT30;65204;48.606;7.598;2023-04-24T03:05:30;15.08;60.87
76384;SHT30;65204;48.606;7.598;2023-04-24T03:06:01;15.05;61.07
76384;SHT30;65204;48.606;7.598;2023-04-24T03:06:31;15.05;61.11
76384;SHT30;65204;48.606;7.598;2023-04-24T03:07:02;15.04;61.19
76384;SHT30;65204;48.606;7.598;2023-04-24T03:07:34;15.05;61.32
76384;SHT30;65204;48.606;7.598;2023-04-24T03:08:05;15.05;61.19
76384;SHT30;65204;48.606;7.598;2023-04-24T03:08:36;14.98;61.43
76384;SHT30;65204;48.606;7.598;2023-04-24T03:09:06;14.98;61.55
76384;SHT30;65204;48.606;7.598;2023-04-24T03:09:37;14.98;61.68
76384;SHT30;65204;48.606;7.598;2023-04-24T03:10:07;14.94;61.75
76384;SHT30;65204;48.606;7.598;2023-04-24T03:10:38;14.95;61.68
76384;SHT30;65204;48.606;7.598;2023-04-24T03:11:08;14.94;61.61
76384;SHT30;65204;48.606;7.598;2023-04-24T03:11:38;14.97;61.72
76384;SHT30;65204;48.606;7.598;2023-04-24T03:12:09;14.98;61.72
76384;SHT30;65204;48.606;7.598;2023-04-24T03:12:40;14.98;61.47
76384;SHT30;65204;48.606;7.598;2023-04-24T03:13:10;15.00;61.42
76384;SHT30;65204;48.606;7.598;2023-04-24T03:13:40;14.98;61.41
76384;SHT30;65204;48.606;7.598;2023-04-24T03:14:11;14.98;61.50